Flugplatz Burgheim (UL)

Hier findest Du alle Informationen zum Flugplatz Burgheim (UL).

Informationen für Piloten zum Flugplatz Burgheim

Hier findest Du alle relevanten Informationen, die Du als Pilot benötigst, um Burgheim anzufliegen.

Flugplatz: Burgheim ICAO-Code: UL Flugplatz
Frequenz Turm: 122,3 Mhz GAFOR Gebiet: -
Frequenz Ground: 122,3 Mhz Mogas: ja
Platzrunde: SW 2000 ft Landegebühr: 5,00 €
Platzhöhe: Sunrise: 04:22 Uhr UTC
Pisten: 14/32 - 650 m x 60 m, GRAS Sunset: 18:13 Uhr UTC

Mitglieder, die in Burgheim fliegen

Flugwetter am Flugplatz Burgheim

Die METAR Information stammen aus EDMA (30.58 km entfernt).

METAR Code:
2019/08/23 10:50
EDMA 231050Z 05007KT 010V100 9999 SCT035 BKN041 21/14 Q1025

Flugschulen am Flugplatz Burgheim

Am Flugplatz Burgheim gibt es leider keine Flugschule.

Benachbarte Flugplätze und Flugschulen

Es gibt 14 weitere Flugplätze in einem Umkreis von 50 km um den Flugplatz Burgheim.

Jetzt anmelden

Passwort vergessen

Umfrage Archiv

Werdet Ihr Euer UL im Zuge der 600 kg MTOW auflasten lassen?

Ja, bei Kosten bis max. 5.000 Euro
45 %
Nein
31.7 %
Ja, bei Kosten bis max. 7.500 Euro
8.3 %
Ja, bei Kosten bis max. 10.000 Euro
7.5 %
Ja, unabhängig von den Kosten
7.5 %
Stimmen: 120 | Diskussion
Anzeige: Roland Aircraft
Statistik Alle Mitglieder

Aktuell sind 42 Besucher online, davon 3 Mitglieder und 39 Gäste.


Mitglieder online:
hotelromeo  Mr. Lucky  Kurt C. Hose 

Anzeige: VFR Sprechfunk Simulator


Anzeige: Pocket FMS